BIENTT MET'MAP
version 2.0 !

Prvue avant fin octobre,
la nouvelle version sera
plus belle, plus complte
et hberge sur un serveur
3 fois plus puissant...
et toujours gratuite !


Pas compatible ?
Essayez la version Mobile !

SE CONNECTER : | S'inscrire | Disclaimer | Découvrir Orbifly |
Code OACI :
Lgende : VFR VFR Marginal IFR IFR Intensif IFR Trs Intensif
Visi :
Plafond :
>= 8 km
>= 3000ft
5 8 km
1000 3000 ft
1500m 5 km
500 1000 ft
800 1500m
200 500 ft
< 800m
< 200 ft

METAR - EBOS Oostend bruges Int. - 15 Sep 2019 14:42 UTC
Data Sources :     NOAA   



- Altitude de l'aérodrome : 13 ft
- Code IATA : OST
- Pas de NOTAMs connus.


EBOS - Oostend bruges Int.

Dernier METAR connu : 2015/08/11 07:50 EBOS 110750Z 32005KT 280V340 9999 FEW008 19/16 Q1019 NOSIG
TAF TAF EBOS
Valide du 15 à 12h jusqu'au 16 à 18h UTC


151116Z 1512/1618 29008KT CAVOK
TEMPO 1602/1606 3500 BR
PROB30
TEMPO 1603/1606 1200 BCFG
PROB40
TEMPO 1610/1617 4500 -RADZ BKN012

Source NOAA


MET'MAP, la Météo Aéronautique d'un coup d'oeil ! - Copyright ORBIFLY Décembre 2007

Développement & Programmation : Alexandra Zaïnal
Co-Développement : Marc-Olivier Méhu
Soutien technique & logistique : Manuel Goepfert
Conception & Financement : Baudouin d'Aumeries